Time;durP1;ratioP1;P1;durP2;ratioP2;P2;SDS_P1;SDS_P2;PMS_P1;PMS_P2;Temp;Humidity;BMP_temperature;BMP_pressure;BME280_temperature;BME280_humidity;BME280_pressure;Samples;Min_cycle;Max_cycle;Signal;HPM_P1;HPM_P2
2023/08/20 00:02:12;;;;;;;11.65;8.48;;;22.50;99.90;;;;;;6247834;22;20891;-81
2023/08/20 00:04:42;;;;;;;13.63;9.00;;;22.40;99.90;;;;;;6225545;22;20023;-81
2023/08/20 00:07:09;;;;;;;11.30;8.02;;;22.40;99.90;;;;;;6189722;23;20024;-82
2023/08/20 00:09:36;;;;;;;13.35;8.52;;;22.40;99.90;;;;;;6189939;23;20024;-81
2023/08/20 00:12:05;;;;;;;11.35;8.95;;;22.50;99.90;;;;;;6188425;23;20020;-81
2023/08/20 00:14:52;;;;;;;11.65;8.10;;;22.40;99.90;;;;;;6164270;23;20024;-81
2023/08/20 00:17:19;;;;;;;12.00;8.23;;;22.40;99.90;;;;;;6187365;23;20627;-82
2023/08/20 00:19:47;;;;;;;14.88;9.15;;;22.40;99.90;;;;;;6162923;23;20024;-81
2023/08/20 00:22:15;;;;;;;10.23;8.27;;;22.40;99.90;;;;;;6187966;23;20080;-81
2023/08/20 00:24:42;;;;;;;10.90;8.80;;;22.40;99.90;;;;;;6162862;23;20810;-81
2023/08/20 00:27:09;;;;;;;10.55;8.15;;;22.40;99.90;;;;;;6187351;23;20020;-81
2023/08/20 00:29:37;;;;;;;10.80;9.02;;;22.40;99.90;;;;;;6186418;23;20031;-81
2023/08/20 00:32:04;;;;;;;13.18;8.98;;;22.30;99.90;;;;;;6158631;23;20031;-81
2023/08/20 00:34:31;;;;;;;12.60;8.55;;;22.30;99.90;;;;;;6187931;23;20348;-81
2023/08/20 00:36:58;;;;;;;11.02;8.65;;;22.30;99.90;;;;;;6186707;23;20024;-81
2023/08/20 00:39:26;;;;;;;10.85;8.73;;;22.30;99.90;;;;;;6186575;23;20056;-81
2023/08/20 00:41:53;;;;;;;12.52;9.07;;;22.30;99.90;;;;;;6163446;23;20048;-81
2023/08/20 00:44:20;;;;;;;13.35;8.93;;;22.30;99.90;;;;;;6208828;22;20043;-81
2023/08/20 00:46:48;;;;;;;11.15;9.20;;;22.30;99.90;;;;;;6248957;22;20552;-81
2023/08/20 00:49:17;;;;;;;13.60;9.48;;;22.20;99.90;;;;;;6249127;22;20034;-82
2023/08/20 00:51:45;;;;;;;19.02;9.75;;;22.20;99.90;;;;;;6248776;22;20031;-81
2023/08/20 00:54:12;;;;;;;12.90;9.05;;;22.20;99.90;;;;;;6224057;22;20023;-81
2023/08/20 00:56:40;;;;;;;14.00;9.65;;;22.20;99.90;;;;;;6247564;22;20077;-81
2023/08/20 00:59:07;;;;;;;12.80;8.57;;;22.20;99.90;;;;;;6248302;22;20016;-81
2023/08/20 01:01:34;;;;;;;12.05;8.65;;;22.20;99.90;;;;;;6248963;22;20027;-81
2023/08/20 01:04:01;;;;;;;13.75;9.32;;;22.20;99.90;;;;;;6223534;22;20043;-81
2023/08/20 01:06:34;;;;;;;12.00;8.43;;;22.10;99.90;;;;;;6223642;22;20016;-81
2023/08/20 01:09:09;;;;;;;11.85;8.75;;;22.10;99.90;;;;;;6249939;22;20046;-81
2023/08/20 01:11:46;;;;;;;12.10;9.13;;;22.10;99.90;;;;;;6249622;22;20022;-81
2023/08/20 01:14:17;;;;;;;11.93;8.75;;;22.10;99.90;;;;;;6249312;22;20078;-81
2023/08/20 01:16:46;;;;;;;10.82;8.35;;;22.10;99.90;;;;;;6247558;22;20059;-81
2023/08/20 01:19:18;;;;;;;11.68;8.88;;;22.10;99.90;;;;;;6224914;22;20040;-82
2023/08/20 01:22:10;;;;;;;11.45;8.32;;;22.00;99.90;;;;;;6249518;22;20027;-82
2023/08/20 01:24:56;;;;;;;10.10;7.85;;;22.10;99.90;;;;;;6252099;22;20020;-81
2023/08/20 01:27:48;;;;;;;12.38;9.07;;;22.10;99.90;;;;;;6224523;22;20436;-81
2023/08/20 01:30:15;;;;;;;11.73;8.35;;;22.10;99.90;;;;;;6224403;22;20043;-81
2023/08/20 01:32:43;;;;;;;13.07;8.88;;;22.10;99.90;;;;;;6223470;22;20098;-81
2023/08/20 01:35:16;;;;;;;13.00;8.93;;;22.10;99.90;;;;;;6248184;22;20028;-81
2023/08/20 01:37:43;;;;;;;11.80;8.43;;;22.00;99.90;;;;;;6248954;22;20672;-81
2023/08/20 01:40:10;;;;;;;10.88;8.20;;;22.00;99.90;;;;;;6248682;22;20757;-81
2023/08/20 01:42:38;;;;;;;11.07;9.00;;;21.90;99.90;;;;;;6223523;22;20020;-81
2023/08/20 01:45:07;;;;;;;11.77;9.02;;;21.90;99.90;;;;;;6223575;22;20086;-81
2023/08/20 01:47:34;;;;;;;11.35;7.75;;;21.90;99.90;;;;;;6247607;22;20105;-81
2023/08/20 01:50:03;;;;;;;10.88;8.65;;;22.00;99.90;;;;;;6249167;22;20024;-81
2023/08/20 01:52:33;;;;;;;12.93;8.32;;;21.90;99.90;;;;;;6248667;22;20016;-81
2023/08/20 01:55:00;;;;;;;10.80;8.77;;;21.90;99.90;;;;;;6248966;22;20042;-81
2023/08/20 01:57:28;;;;;;;11.75;8.40;;;21.90;99.90;;;;;;6223341;22;20042;-81
2023/08/20 01:59:55;;;;;;;12.38;8.18;;;21.80;99.90;;;;;;6249222;22;20053;-81
2023/08/20 02:02:22;;;;;;;12.70;8.88;;;21.80;99.90;;;;;;6246411;22;20024;-81
2023/08/20 02:04:49;;;;;;;10.57;8.10;;;21.80;99.90;;;;;;6248098;22;20427;-81
2023/08/20 02:07:17;;;;;;;13.18;9.52;;;21.80;99.90;;;;;;6224042;22;20024;-81
2023/08/20 02:09:45;;;;;;;11.65;8.15;;;21.70;99.90;;;;;;6224857;22;20023;-81
2023/08/20 02:12:12;;;;;;;13.55;9.05;;;21.80;99.90;;;;;;6249144;22;20477;-81
2023/08/20 02:14:40;;;;;;;12.90;8.35;;;21.70;99.90;;;;;;6248991;22;20016;-81
2023/08/20 02:17:12;;;;;;;11.45;8.23;;;21.70;99.90;;;;;;6248600;22;20027;-81
2023/08/20 02:19:39;;;;;;;10.90;8.38;;;21.80;99.90;;;;;;6243160;23;20028;-81
2023/08/20 02:22:06;;;;;;;12.80;9.23;;;21.70;99.90;;;;;;6216496;22;20020;-81
2023/08/20 02:24:33;;;;;;;11.07;8.48;;;21.70;99.90;;;;;;6249246;22;20043;-80
2023/08/20 02:27:00;;;;;;;14.07;8.43;;;21.70;99.90;;;;;;6249843;22;20049;-80
2023/08/20 02:29:27;;;;;;;13.82;9.27;;;21.70;99.90;;;;;;6223594;22;20012;-80
2023/08/20 02:31:55;;;;;;;16.83;9.70;;;21.70;99.90;;;;;;6249140;22;20027;-80
2023/08/20 02:34:22;;;;;;;14.30;8.30;;;21.60;99.90;;;;;;6250326;22;20095;-80
2023/08/20 02:36:50;;;;;;;12.77;8.90;;;21.60;99.90;;;;;;6250666;22;20020;-80
2023/08/20 02:39:17;;;;;;;12.85;9.23;;;21.60;99.90;;;;;;6251165;22;20081;-80
2023/08/20 02:41:44;;;;;;;14.90;9.18;;;21.60;99.90;;;;;;6226706;22;20019;-80
2023/08/20 02:44:12;;;;;;;13.93;9.43;;;21.60;99.90;;;;;;6250650;22;20027;-80
2023/08/20 02:46:40;;;;;;;13.05;9.07;;;21.60;99.90;;;;;;6250280;22;20020;-80
2023/08/20 02:49:07;;;;;;;12.60;8.90;;;21.60;99.90;;;;;;6249195;22;20012;-80
2023/08/20 02:51:34;;;;;;;12.98;8.63;;;21.60;99.90;;;;;;6250768;22;20023;-80
2023/08/20 02:54:02;;;;;;;14.15;8.63;;;21.60;99.90;;;;;;6228105;22;20020;-80
2023/08/20 02:56:29;;;;;;;14.00;8.27;;;21.60;99.90;;;;;;6258129;22;20045;-80
2023/08/20 02:58:56;;;;;;;14.13;8.50;;;21.60;99.90;;;;;;6258790;22;20408;-80
2023/08/20 03:01:25;;;;;;;14.35;9.02;;;21.60;99.90;;;;;;6256192;22;20027;-80
2023/08/20 03:03:53;;;;;;;11.38;8.75;;;21.50;99.90;;;;;;6232446;22;20019;-80
2023/08/20 03:06:21;;;;;;;12.43;8.45;;;21.50;99.90;;;;;;6255367;22;20409;-80
2023/08/20 03:08:48;;;;;;;12.90;8.35;;;21.50;99.90;;;;;;6254309;22;20070;-80
2023/08/20 03:11:15;;;;;;;11.35;7.93;;;21.50;99.90;;;;;;6254287;22;20091;-80
2023/08/20 03:13:42;;;;;;;11.45;8.13;;;21.60;99.90;;;;;;6251403;22;20065;-80
2023/08/20 03:16:09;;;;;;;11.65;8.10;;;21.50;99.90;;;;;;6226947;22;20507;-80
2023/08/20 03:18:36;;;;;;;12.65;7.75;;;21.60;99.90;;;;;;6252237;22;20106;-80
2023/08/20 03:21:04;;;;;;;10.32;8.25;;;21.60;99.90;;;;;;6226248;22;20026;-80
2023/08/20 03:23:31;;;;;;;11.15;8.05;;;21.60;99.90;;;;;;6226198;22;20036;-80
2023/08/20 03:25:59;;;;;;;11.77;8.00;;;21.60;99.90;;;;;;6250006;22;20043;-80
2023/08/20 03:28:26;;;;;;;11.30;8.32;;;21.60;99.90;;;;;;6250557;22;20023;-80
2023/08/20 03:30:53;;;;;;;11.30;7.70;;;21.60;99.90;;;;;;6250010;22;20339;-80
2023/08/20 03:33:25;;;;;;;11.88;8.20;;;21.50;99.90;;;;;;6249529;22;20011;-80
2023/08/20 03:35:52;;;;;;;12.70;7.93;;;21.60;99.90;;;;;;6249233;22;20023;-80
2023/08/20 03:38:20;;;;;;;13.25;8.20;;;21.50;99.90;;;;;;6224553;22;20055;-80
2023/08/20 03:40:48;;;;;;;11.27;8.60;;;21.50;99.90;;;;;;6251754;22;20028;-80
2023/08/20 03:43:15;;;;;;;11.95;8.93;;;21.50;99.90;;;;;;6227406;22;20106;-80
2023/08/20 03:45:42;;;;;;;14.70;8.48;;;21.30;99.90;;;;;;6251946;22;20042;-80
2023/08/20 03:48:09;;;;;;;10.32;7.82;;;21.40;99.90;;;;;;6252189;22;20356;-80
2023/08/20 03:50:36;;;;;;;13.32;9.27;;;21.40;99.90;;;;;;6251313;22;20099;-80
2023/08/20 03:53:04;;;;;;;13.80;9.18;;;21.40;99.90;;;;;;6277262;22;20132;-80
2023/08/20 03:55:31;;;;;;;15.15;9.18;;;21.30;99.90;;;;;;6251576;22;20119;-80
2023/08/20 03:57:58;;;;;;;11.85;8.18;;;21.40;99.90;;;;;;6251314;22;20050;-80
2023/08/20 04:00:25;;;;;;;10.95;7.97;;;21.40;99.90;;;;;;6251132;22;20028;-80
2023/08/20 04:02:53;;;;;;;12.30;8.23;;;21.40;99.90;;;;;;6251551;22;20016;-80
2023/08/20 04:05:20;;;;;;;14.00;8.73;;;21.40;99.90;;;;;;6249925;22;20720;-80
2023/08/20 04:07:49;;;;;;;10.40;7.82;;;21.40;99.90;;;;;;6250830;22;20652;-80
2023/08/20 04:10:18;;;;;;;13.50;8.23;;;21.40;99.90;;;;;;6251003;22;20026;-80
2023/08/20 04:12:46;;;;;;;10.43;8.10;;;21.40;99.90;;;;;;6251382;22;20051;-80
2023/08/20 04:15:13;;;;;;;12.27;8.25;;;21.40;99.90;;;;;;6250864;22;20026;-80
2023/08/20 04:17:40;;;;;;;15.38;8.65;;;21.40;99.90;;;;;;6227160;22;20316;-80
2023/08/20 04:20:09;;;;;;;15.75;8.02;;;21.40;99.90;;;;;;6251117;22;20023;-80
2023/08/20 04:22:37;;;;;;;11.43;8.02;;;21.40;99.90;;;;;;6226009;22;20358;-80
2023/08/20 04:25:05;;;;;;;14.05;8.75;;;21.40;99.90;;;;;;6252501;22;20038;-80
2023/08/20 04:27:33;;;;;;;12.00;8.02;;;21.40;99.90;;;;;;6252155;22;20035;-80
2023/08/20 04:30:01;;;;;;;12.48;8.23;;;21.50;99.90;;;;;;6255539;22;20015;-80
2023/08/20 04:32:28;;;;;;;12.15;8.38;;;21.40;99.90;;;;;;6225192;22;20044;-80
2023/08/20 04:34:56;;;;;;;11.57;7.72;;;21.50;99.90;;;;;;6276785;22;20034;-80
2023/08/20 04:37:23;;;;;;;11.93;8.32;;;21.50;99.90;;;;;;6252058;22;20027;-80
2023/08/20 04:39:51;;;;;;;14.07;8.75;;;21.50;99.90;;;;;;6254196;22;20081;-80
2023/08/20 04:42:19;;;;;;;12.52;8.90;;;21.50;99.90;;;;;;6228176;22;20774;-80
2023/08/20 04:44:46;;;;;;;11.55;8.93;;;21.50;99.90;;;;;;6227916;22;20047;-80
2023/08/20 04:47:13;;;;;;;11.15;8.43;;;21.50;99.90;;;;;;6252702;22;20030;-80
2023/08/20 04:49:40;;;;;;;11.38;7.90;;;21.60;99.90;;;;;;6252668;22;20600;-80
2023/08/20 04:52:08;;;;;;;11.38;8.75;;;21.60;99.90;;;;;;6252321;22;20024;-80
2023/08/20 04:54:35;;;;;;;12.88;8.75;;;21.60;99.90;;;;;;6228670;22;20023;-80
2023/08/20 04:57:03;;;;;;;13.27;9.23;;;21.70;99.90;;;;;;6253975;22;20023;-81
2023/08/20 04:59:30;;;;;;;12.80;9.20;;;21.70;99.90;;;;;;6252739;22;20046;-81
2023/08/20 05:02:23;;;;;;;12.18;8.45;;;21.80;99.90;;;;;;6252117;22;20023;-81
2023/08/20 05:04:55;;;;;;;13.52;8.75;;;21.80;99.90;;;;;;6227380;22;20019;-81
2023/08/20 05:07:22;;;;;;;11.15;8.38;;;21.80;99.90;;;;;;6226441;22;20023;-81
2023/08/20 05:09:50;;;;;;;12.23;8.73;;;21.80;99.90;;;;;;6251842;22;20070;-81
2023/08/20 05:12:17;;;;;;;10.85;8.23;;;21.80;99.90;;;;;;6249488;22;20839;-81
2023/08/20 05:14:44;;;;;;;13.18;8.52;;;21.90;99.90;;;;;;6249161;22;20015;-81
2023/08/20 05:17:12;;;;;;;11.25;8.63;;;21.90;99.90;;;;;;6250732;22;20380;-81
2023/08/20 05:19:39;;;;;;;10.90;8.05;;;21.90;99.90;;;;;;6223224;22;20027;-81
2023/08/20 05:22:08;;;;;;;11.38;8.95;;;21.90;99.90;;;;;;6248500;22;20031;-81
2023/08/20 05:24:35;;;;;;;11.05;7.97;;;22.00;99.90;;;;;;6249378;22;20103;-81
2023/08/20 05:27:09;;;;;;;12.40;8.15;;;22.00;99.90;;;;;;6249390;22;20451;-81
2023/08/20 05:29:38;;;;;;;11.10;8.35;;;22.10;99.90;;;;;;6223834;22;20019;-81
2023/08/20 05:32:07;;;;;;;10.77;8.57;;;22.10;99.90;;;;;;6248957;22;20099;-81
2023/08/20 05:34:34;;;;;;;11.73;8.07;;;22.20;99.90;;;;;;6249835;22;20020;-80
2023/08/20 05:37:03;;;;;;;9.43;8.10;;;22.20;99.90;;;;;;6224548;22;20030;-82
2023/08/20 05:39:37;;;;;;;10.48;7.85;;;22.20;99.90;;;;;;6250882;22;20452;-82
2023/08/20 05:42:04;;;;;;;9.52;7.85;;;22.30;99.90;;;;;;6251528;22;20023;-82
2023/08/20 05:44:32;;;;;;;11.45;7.57;;;22.30;99.90;;;;;;6250941;22;20027;-82
2023/08/20 05:47:01;;;;;;;9.88;7.75;;;22.40;99.90;;;;;;6251394;22;20069;-82
2023/08/20 05:49:28;;;;;;;9.18;7.55;;;22.50;99.90;;;;;;6252341;22;20073;-82
2023/08/20 05:51:57;;;;;;;9.88;7.25;;;22.50;99.90;;;;;;6252287;22;20016;-82
2023/08/20 05:54:26;;;;;;;8.82;7.03;;;22.60;99.90;;;;;;6252151;22;20042;-82
2023/08/20 05:56:55;;;;;;;10.38;7.35;;;22.70;99.90;;;;;;6250413;22;20026;-82
2023/08/20 05:59:22;;;;;;;9.27;7.03;;;22.70;99.90;;;;;;6250076;22;20023;-82
2023/08/20 06:01:50;;;;;;;10.20;7.43;;;22.80;99.90;;;;;;6249973;22;20023;-82
2023/08/20 06:04:18;;;;;;;8.88;7.45;;;22.90;99.90;;;;;;6252076;22;20027;-82
2023/08/20 06:06:45;;;;;;;11.70;8.15;;;23.00;99.90;;;;;;6229600;22;20031;-82
2023/08/20 06:09:13;;;;;;;9.70;7.88;;;23.10;99.90;;;;;;6254552;22;20078;-82
2023/08/20 06:11:40;;;;;;;9.10;7.22;;;23.20;99.90;;;;;;6253954;22;20071;-82
2023/08/20 06:14:07;;;;;;;9.38;7.75;;;23.30;99.90;;;;;;6256826;22;20012;-81
2023/08/20 06:16:34;;;;;;;9.60;7.13;;;23.40;99.90;;;;;;6254539;22;20110;-83
2023/08/20 06:19:01;;;;;;;7.50;6.68;;;23.60;99.90;;;;;;6253332;22;20400;-82
2023/08/20 06:21:31;;;;;;;10.65;7.25;;;23.60;99.90;;;;;;6256820;22;20054;-82
2023/08/20 06:23:58;;;;;;;10.93;6.88;;;23.70;99.90;;;;;;6230392;22;20023;-82
2023/08/20 06:26:25;;;;;;;10.73;7.60;;;23.80;99.90;;;;;;6257530;22;20030;-82
2023/08/20 06:28:52;;;;;;;9.73;7.07;;;23.90;99.90;;;;;;6254397;22;20023;-82
2023/08/20 06:31:19;;;;;;;9.15;6.85;;;24.00;99.90;;;;;;6256860;22;20056;-82
2023/08/20 06:33:47;;;;;;;11.00;7.38;;;24.10;99.90;;;;;;6229693;22;20023;-82
2023/08/20 06:36:14;;;;;;;9.45;7.45;;;24.20;99.90;;;;;;6253882;22;20016;-83
2023/08/20 06:38:44;;;;;;;8.43;7.28;;;24.30;99.90;;;;;;6231679;22;20019;-82
2023/08/20 06:41:11;;;;;;;8.57;6.95;;;24.40;99.90;;;;;;6232103;22;20019;-82
2023/08/20 06:43:38;;;;;;;11.02;6.88;;;24.50;99.90;;;;;;6255603;22;20008;-82
2023/08/20 06:46:05;;;;;;;7.25;6.13;;;24.50;99.90;;;;;;6256706;22;20047;-82
2023/08/20 06:48:32;;;;;;;8.40;6.40;;;24.60;99.90;;;;;;6256300;22;20107;-82
2023/08/20 06:51:08;;;;;;;10.18;6.75;;;24.60;99.90;;;;;;6258007;22;20020;-82
2023/08/20 06:53:36;;;;;;;10.95;8.05;;;24.80;99.90;;;;;;6256445;22;20530;-82
2023/08/20 06:56:03;;;;;;;9.35;6.80;;;24.90;99.90;;;;;;6233166;22;20023;-83
2023/08/20 06:58:30;;;;;;;9.27;6.45;;;25.00;99.90;;;;;;6258411;22;20023;-82
2023/08/20 07:01:06;;;;;;;9.10;6.43;;;25.20;99.90;;;;;;6230182;22;20031;-83
2023/08/20 07:03:37;;;;;;;9.70;5.97;;;25.20;99.90;;;;;;6230484;22;20501;-82
2023/08/20 07:06:05;;;;;;;10.02;6.90;;;25.30;99.90;;;;;;6255685;22;20443;-82
2023/08/20 07:08:32;;;;;;;9.18;6.43;;;25.40;99.90;;;;;;6229649;22;20106;-83
2023/08/20 07:10:59;;;;;;;9.98;7.20;;;25.40;99.90;;;;;;6229631;22;20024;-82
2023/08/20 07:13:27;;;;;;;7.80;6.45;;;25.60;99.90;;;;;;6252316;22;20039;-82
2023/08/20 07:15:54;;;;;;;7.80;6.32;;;25.70;99.90;;;;;;6255471;22;20035;-82
2023/08/20 07:18:22;;;;;;;7.95;5.93;;;25.70;99.90;;;;;;6253764;22;20043;-82
2023/08/20 07:20:51;;;;;;;7.88;5.85;;;25.80;99.90;;;;;;6230600;22;20023;-82
2023/08/20 07:23:19;;;;;;;7.05;6.05;;;26.00;99.90;;;;;;6230629;22;20023;-82
2023/08/20 07:25:46;;;;;;;6.35;5.60;;;26.10;99.90;;;;;;6255394;22;20016;-81
2023/08/20 07:28:14;;;;;;;8.35;6.32;;;26.20;99.90;;;;;;6253965;22;20079;-83
2023/08/20 07:30:41;;;;;;;7.00;6.20;;;26.30;99.90;;;;;;6226593;22;20054;-83
2023/08/20 07:33:11;;;;;;;7.32;6.15;;;26.40;99.90;;;;;;6253907;22;20015;-83
2023/08/20 07:35:38;;;;;;;7.38;5.38;;;26.50;99.90;;;;;;6254718;22;19999;-83
2023/08/20 07:38:05;;;;;;;6.80;5.90;;;26.50;99.90;;;;;;6255355;22;20024;-83
2023/08/20 07:40:32;;;;;;;8.45;6.00;;;26.60;99.90;;;;;;6255018;22;20023;-84
2023/08/20 07:43:02;;;;;;;7.00;5.55;;;26.70;99.90;;;;;;6254532;22;20018;-82
2023/08/20 07:45:30;;;;;;;7.88;6.07;;;26.80;99.90;;;;;;6256904;22;20024;-81
2023/08/20 07:47:57;;;;;;;9.10;5.75;;;26.80;99.90;;;;;;6254260;22;20020;-84
2023/08/20 07:50:24;;;;;;;8.15;5.78;;;26.80;99.20;;;;;;6259644;22;20008;-83
2023/08/20 07:52:51;;;;;;;6.65;5.68;;;26.90;99.90;;;;;;6253303;22;20028;-82
2023/08/20 07:55:18;;;;;;;6.97;5.95;;;27.00;99.10;;;;;;6257062;22;20035;-84
2023/08/20 07:57:45;;;;;;;8.18;5.55;;;27.10;99.70;;;;;;6231300;22;20882;-84
2023/08/20 08:00:13;;;;;;;7.35;6.05;;;27.20;98.70;;;;;;6282926;22;20023;-81
2023/08/20 08:02:40;;;;;;;7.00;5.13;;;27.30;98.40;;;;;;6254150;22;20024;-82
2023/08/20 08:05:08;;;;;;;7.05;5.35;;;27.30;98.40;;;;;;6252927;22;20055;-83
2023/08/20 08:07:35;;;;;;;7.70;6.10;;;27.30;97.60;;;;;;6256667;22;20046;-83
2023/08/20 08:10:03;;;;;;;6.20;5.50;;;27.40;99.70;;;;;;6253622;22;20082;-82
2023/08/20 08:12:30;;;;;;;8.23;6.03;;;27.40;98.30;;;;;;6229792;22;20330;-83
2023/08/20 08:14:57;;;;;;;6.85;5.85;;;27.50;99.90;;;;;;6228894;22;20948;-80
2023/08/20 08:17:24;;;;;;;9.00;6.70;;;27.50;99.90;;;;;;6255035;22;20089;-82
2023/08/20 08:19:53;;;;;;;7.80;6.45;;;27.50;99.90;;;;;;6254335;22;20050;-82
2023/08/20 08:22:21;;;;;;;10.20;6.30;;;27.60;99.10;;;;;;6227136;22;20027;-82
2023/08/20 08:24:48;;;;;;;8.20;6.55;;;27.50;99.90;;;;;;6230188;22;20027;-83
2023/08/20 08:27:15;;;;;;;7.20;6.50;;;27.60;99.90;;;;;;6229539;22;20019;-84
2023/08/20 08:29:42;;;;;;;8.20;6.47;;;27.70;99.90;;;;;;6255010;22;20022;-83
2023/08/20 08:32:09;;;;;;;10.10;6.88;;;27.80;99.90;;;;;;6251547;22;20011;-81
2023/08/20 08:34:36;;;;;;;7.30;6.53;;;27.80;99.90;;;;;;6254669;22;20012;-83
2023/08/20 08:37:03;;;;;;;6.93;6.10;;;27.80;99.90;;;;;;6228117;22;20020;-83
2023/08/20 08:39:30;;;;;;;6.90;6.00;;;27.90;99.60;;;;;;6251719;22;20026;-83
2023/08/20 08:42:07;;;;;;;6.05;5.10;;;27.90;99.80;;;;;;6229187;22;20141;-83
2023/08/20 08:44:37;;;;;;;6.88;6.03;;;28.00;95.70;;;;;;6279022;22;20470;-84
2023/08/20 08:47:05;;;;;;;6.72;5.95;;;28.00;96.10;;;;;;6256223;22;20012;-84
2023/08/20 08:49:35;;;;;;;6.05;5.07;;;28.00;95.20;;;;;;6227741;22;20046;-83
2023/08/20 08:52:04;;;;;;;8.25;5.82;;;28.10;95.50;;;;;;6227772;22;20019;-84
2023/08/20 08:54:33;;;;;;;9.48;6.82;;;28.10;95.50;;;;;;6226814;22;20020;-84
2023/08/20 08:57:00;;;;;;;6.85;5.88;;;28.10;94.70;;;;;;6226557;22;20039;-85
2023/08/20 08:59:28;;;;;;;7.80;5.38;;;28.20;93.10;;;;;;6250531;22;20760;-82
2023/08/20 09:01:56;;;;;;;7.80;5.10;;;28.10;93.20;;;;;;6252903;22;20046;-82
2023/08/20 09:04:24;;;;;;;8.13;5.50;;;28.10;92.80;;;;;;6251510;22;20047;-81
2023/08/20 09:06:53;;;;;;;9.23;6.13;;;28.10;93.90;;;;;;6251414;22;20061;-82
2023/08/20 09:09:21;;;;;;;7.40;5.80;;;28.10;94.10;;;;;;6225585;22;20356;-82
2023/08/20 09:11:48;;;;;;;6.97;5.68;;;28.10;93.20;;;;;;6251664;22;20050;-81
2023/08/20 09:14:24;;;;;;;6.13;5.30;;;28.20;94.20;;;;;;6225479;22;20019;-82
2023/08/20 09:17:02;;;;;;;6.45;5.80;;;28.30;92.80;;;;;;6226654;22;20051;-82
2023/08/20 09:19:34;;;;;;;7.07;5.60;;;28.30;91.50;;;;;;6251602;22;20024;-82
2023/08/20 09:22:01;;;;;;;6.03;5.43;;;28.30;92.00;;;;;;6253752;22;20016;-82
2023/08/20 09:24:46;;;;;;;7.10;5.18;;;28.50;90.90;;;;;;6250988;22;20465;-85
2023/08/20 09:27:13;;;;;;;5.65;4.90;;;28.40;91.90;;;;;;6226697;22;20067;-82
2023/08/20 09:29:48;;;;;;;5.95;5.00;;;28.50;91.20;;;;;;6253640;22;20397;-84
2023/08/20 09:32:16;;;;;;;7.70;5.50;;;28.60;90.50;;;;;;6248693;22;20015;-83
2023/08/20 09:34:43;;;;;;;9.63;6.13;;;28.60;89.10;;;;;;6251056;22;20023;-82
2023/08/20 09:37:13;;;;;;;8.73;6.18;;;28.50;91.40;;;;;;6225416;22;20050;-84
2023/08/20 09:39:41;;;;;;;5.97;5.07;;;28.60;90.30;;;;;;6223843;22;20031;-84
2023/08/20 09:42:09;;;;;;;8.30;6.90;;;28.60;87.50;;;;;;6250033;22;20027;-84
2023/08/20 09:44:38;;;;;;;7.50;5.25;;;28.60;87.80;;;;;;6251807;22;20497;-82
2023/08/20 09:47:10;;;;;;;6.60;5.45;;;28.70;87.10;;;;;;6226010;22;20053;-84
2023/08/20 09:49:38;;;;;;;;;;;28.70;86.90;;;;;;6251793;22;20026;-83
2023/08/20 09:52:10;;;;;;;9.70;7.07;;;28.70;86.30;;;;;;6224578;22;19915;-85
2023/08/20 09:55:02;;;;;;;8.15;6.93;;;28.70;87.30;;;;;;6249651;22;20042;-85
2023/08/20 09:57:39;;;;;;;6.10;5.03;;;28.70;87.60;;;;;;6225651;22;20074;-85
2023/08/20 10:00:12;;;;;;;5.55;5.05;;;28.70;87.00;;;;;;6249293;22;20023;-85
2023/08/20 10:02:40;;;;;;;7.05;5.63;;;28.70;88.00;;;;;;6252282;22;20030;-85
2023/08/20 10:05:10;;;;;;;7.88;6.68;;;28.70;89.60;;;;;;6250134;22;20055;-84
2023/08/20 10:07:39;;;;;;;7.07;5.30;;;28.80;92.10;;;;;;6248634;22;20016;-84
2023/08/20 10:10:08;;;;;;;6.13;5.53;;;28.90;91.30;;;;;;6250157;22;20039;-85
2023/08/20 10:12:38;;;;;;;6.55;5.18;;;28.90;90.20;;;;;;6250652;22;20119;-84
2023/08/20 10:15:13;;;;;;;9.75;6.90;;;29.00;89.70;;;;;;6244189;22;20415;-85
2023/08/20 10:17:45;;;;;;;7.60;5.78;;;29.00;88.60;;;;;;6244335;22;20482;-85
2023/08/20 10:20:15;;;;;;;7.60;5.20;;;28.90;89.50;;;;;;6217823;22;20019;-84
2023/08/20 10:22:45;;;;;;;6.82;6.13;;;29.00;89.80;;;;;;6220869;22;20402;-85
2023/08/20 10:25:40;;;;;;;7.30;6.03;;;29.00;89.00;;;;;;6244660;22;20355;-85
2023/08/20 10:28:25;;;;;;;6.28;5.60;;;29.00;89.40;;;;;;6219658;22;20042;-84
2023/08/20 10:31:11;;;;;;;6.20;5.55;;;29.00;88.60;;;;;;6218244;22;20020;-83
2023/08/20 10:33:50;;;;;;;5.40;4.90;;;29.00;87.70;;;;;;6244408;22;20023;-86
2023/08/20 10:36:31;;;;;;;6.35;5.60;;;29.00;86.40;;;;;;6241800;22;20086;-83
2023/08/20 10:39:04;;;;;;;6.82;6.00;;;29.00;88.00;;;;;;6217937;22;20075;-83
2023/08/20 10:41:33;;;;;;;6.68;6.07;;;29.00;89.90;;;;;;6220131;22;20513;-82
2023/08/20 10:44:00;;;;;;;10.30;6.22;;;29.00;91.50;;;;;;6241339;22;20110;-84
2023/08/20 10:46:30;;;;;;;6.30;5.65;;;29.10;89.80;;;;;;6218143;22;20047;-83
2023/08/20 10:49:02;;;;;;;7.75;6.32;;;29.10;88.20;;;;;;6242524;22;20019;-81
2023/08/20 10:51:37;;;;;;;7.40;6.60;;;29.10;91.30;;;;;;6244325;22;20367;-84
2023/08/20 10:54:07;;;;;;;8.95;6.05;;;29.20;90.20;;;;;;6245339;22;20026;-84
2023/08/20 10:56:48;;;;;;;7.75;6.13;;;29.20;92.00;;;;;;6241313;22;20043;-85
2023/08/20 10:59:21;;;;;;;6.78;6.07;;;29.20;90.80;;;;;;6238488;22;20023;-83
2023/08/20 11:01:56;;;;;;;7.47;6.50;;;29.30;90.40;;;;;;6241494;22;20063;-84
2023/08/20 11:04:32;;;;;;;7.50;6.80;;;29.40;91.90;;;;;;6243015;22;20031;-82
2023/08/20 11:07:00;;;;;;;7.00;6.30;;;29.30;91.30;;;;;;6217322;22;20035;-83
2023/08/20 11:09:29;;;;;;;6.90;6.25;;;29.40;92.50;;;;;;6216250;22;20028;-84
2023/08/20 11:11:57;;;;;;;7.80;6.60;;;29.30;89.90;;;;;;6219440;22;20031;-82
2023/08/20 11:14:25;;;;;;;11.88;6.38;;;29.30;92.30;;;;;;6218595;22;20015;-83
2023/08/20 11:16:52;;;;;;;10.70;7.35;;;29.40;88.90;;;;;;6217563;22;20062;-83
2023/08/20 11:19:23;;;;;;;8.30;6.85;;;29.50;90.50;;;;;;6246626;22;20457;-84
2023/08/20 11:21:51;;;;;;;7.57;5.70;;;29.40;87.00;;;;;;6219931;22;20016;-82
2023/08/20 11:24:20;;;;;;;7.63;6.10;;;29.40;86.90;;;;;;6244168;22;20024;-81
2023/08/20 11:26:48;;;;;;;7.53;6.15;;;29.50;90.90;;;;;;6218447;22;20131;-81
2023/08/20 11:29:22;;;;;;;7.70;6.32;;;29.40;89.60;;;;;;6245450;22;20073;-83
2023/08/20 11:31:49;;;;;;;7.95;6.18;;;29.40;89.60;;;;;;6243679;22;20055;-83
2023/08/20 11:34:19;;;;;;;6.70;6.10;;;29.40;89.20;;;;;;6244810;22;20496;-82
2023/08/20 11:36:46;;;;;;;8.00;6.68;;;29.60;89.90;;;;;;6244501;22;20028;-82
2023/08/20 11:39:13;;;;;;;7.22;6.50;;;29.50;89.10;;;;;;6245843;22;20439;-83
2023/08/20 11:41:41;;;;;;;8.05;7.18;;;29.60;87.10;;;;;;6220162;22;20023;-82
2023/08/20 11:44:09;;;;;;;7.10;6.40;;;29.60;87.50;;;;;;6240977;22;20125;-82
2023/08/20 11:46:44;;;;;;;7.40;6.40;;;29.50;89.30;;;;;;6219611;22;20477;-83
2023/08/20 11:49:12;;;;;;;8.52;6.40;;;29.60;88.20;;;;;;6244573;22;20027;-83
2023/08/20 11:51:41;;;;;;;8.13;6.45;;;29.60;90.30;;;;;;6216067;22;20363;-83
2023/08/20 11:54:18;;;;;;;9.30;6.90;;;29.70;90.80;;;;;;6241261;22;20054;-82
2023/08/20 11:56:48;;;;;;;8.30;6.40;;;29.70;89.70;;;;;;6219122;22;20011;-82
2023/08/20 11:59:18;;;;;;;9.93;6.90;;;29.80;89.00;;;;;;6244603;22;20015;-83
2023/08/20 12:01:54;;;;;;;7.28;6.57;;;29.80;90.80;;;;;;6244893;22;20359;-82
2023/08/20 12:04:25;;;;;;;7.45;6.18;;;29.80;89.10;;;;;;6218828;22;20028;-82
2023/08/20 12:07:24;;;;;;;6.82;6.07;;;29.80;89.00;;;;;;6246986;22;20024;-82
2023/08/20 12:09:51;;;;;;;7.70;5.75;;;30.00;84.60;;;;;;6204389;22;20023;-81
2023/08/20 12:12:21;;;;;;;7.28;5.97;;;30.00;83.80;;;;;;6243038;22;20016;-83
2023/08/20 12:14:48;;;;;;;6.85;5.53;;;30.00;83.80;;;;;;6245255;22;20035;-83
2023/08/20 12:17:19;;;;;;;7.60;5.93;;;29.90;83.70;;;;;;6246014;22;20012;-81
2023/08/20 12:19:46;;;;;;;7.85;5.65;;;30.00;83.40;;;;;;6219145;22;20019;-81
2023/08/20 12:22:13;;;;;;;9.50;7.78;;;30.00;81.30;;;;;;6243915;22;20023;-81
2023/08/20 12:24:40;;;;;;;12.02;8.20;;;29.90;81.60;;;;;;6234674;22;20020;-83
2023/08/20 12:27:08;;;;;;;10.32;7.20;;;29.90;81.00;;;;;;6221251;22;20023;-82
2023/08/20 12:29:35;;;;;;;9.23;6.30;;;29.90;83.80;;;;;;6247031;22;20027;-83
2023/08/20 12:32:03;;;;;;;8.13;5.97;;;30.00;81.00;;;;;;6220040;22;20051;-83
2023/08/20 12:34:31;;;;;;;6.65;6.05;;;30.00;81.50;;;;;;6220145;22;20526;-82
2023/08/20 12:36:58;;;;;;;5.95;5.35;;;30.00;81.90;;;;;;6221224;22;20424;-81
2023/08/20 12:39:25;;;;;;;6.43;5.55;;;30.00;82.60;;;;;;6220533;22;20051;-82
2023/08/20 12:41:52;;;;;;;7.75;5.85;;;30.00;83.80;;;;;;6245526;22;20085;-81
2023/08/20 12:44:19;;;;;;;8.02;5.57;;;30.10;85.40;;;;;;6245163;22;20023;-82
2023/08/20 12:46:46;;;;;;;9.25;6.63;;;30.10;83.30;;;;;;6228950;23;20024;-82
2023/08/20 12:49:14;;;;;;;7.65;5.32;;;30.10;84.90;;;;;;6233359;23;20020;-82
2023/08/20 12:51:41;;;;;;;6.95;5.80;;;30.10;84.30;;;;;;6207499;22;20063;-81
2023/08/20 12:54:08;;;;;;;6.32;5.63;;;30.10;81.00;;;;;;6240603;22;20577;-82